North Long Branch, New Jersey
Current Conditions -  °F | °C
As of 5:35 PM on Sunday 25 Jan 2015 (Local Time) from KBLM Reporting Station
Scattered Clouds Scattered Clouds  
Wind Chill: 36°   Ceiling: Unl
Heat Index: 39°   Visibility: 10mi
Dew Point: 27°   Wind: 5mph
Humidity: 61%   Direction: 290°WNW
Pressure: 29.85"   Gusts: NA
Location:  40.2954°N, 73.9914°W
Report Text: KBLM 252235Z AUTO 29004KT 10SM SCT100 04/M03 A2985 RMK AO1
Loading
Personal Weather Stations






























Interactive Weather Map New forecast layout! Learn more

10-Day Weather Forecast

Advertisements
Track Severe Weather on mobile